Time;durP1;ratioP1;P1;durP2;ratioP2;P2;SDS_P1;SDS_P2;PMS_P1;PMS_P2;Temp;Humidity;BMP_temperature;BMP_pressure;BME280_temperature;BME280_humidity;BME280_pressure;Samples;Min_cycle;Max_cycle;Signal;HPM_P1;HPM_P2
2022/01/10 00:00:46;;;;;;;0.20;0.10;;;4.40;99.90;;;;;;5067752;28;20180;-84
2022/01/10 00:03:13;;;;;;;0.10;0.10;;;4.40;99.90;;;;;;5062611;28;20645;-84
2022/01/10 00:05:39;;;;;;;0.10;0.10;;;4.30;99.90;;;;;;5063938;28;20204;-84
2022/01/10 00:08:04;;;;;;;2.43;0.30;;;4.30;99.90;;;;;;5060128;28;20661;-84
2022/01/10 00:10:31;;;;;;;1.00;1.00;;;4.30;99.90;;;;;;5065969;28;20186;-84
2022/01/10 00:12:57;;;;;;;0.17;0.17;;;4.40;99.90;;;;;;5065390;28;20221;-84
2022/01/10 00:15:23;;;;;;;0.27;0.27;;;4.20;99.90;;;;;;5061789;28;20249;-83
2022/01/10 00:17:49;;;;;;;0.13;0.13;;;4.30;99.90;;;;;;5065919;28;20259;-84
2022/01/10 00:20:17;;;;;;;0.40;0.40;;;4.40;99.90;;;;;;5060407;28;20602;-84
2022/01/10 00:22:46;;;;;;;0.20;0.20;;;4.30;99.90;;;;;;5061954;28;20182;-84
2022/01/10 00:25:13;;;;;;;0.33;0.30;;;4.30;99.90;;;;;;5066598;28;20602;-84
2022/01/10 00:27:39;;;;;;;2.53;0.40;;;3.90;99.90;;;;;;5064811;28;20650;-84
2022/01/10 00:30:05;;;;;;;0.30;0.10;;;3.80;99.90;;;;;;5063692;28;20635;-84
2022/01/10 00:32:31;;;;;;;0.30;0.30;;;3.60;99.90;;;;;;5065786;28;20192;-84
2022/01/10 00:34:57;;;;;;;0.10;0.10;;;3.50;99.90;;;;;;5064993;28;20207;-84
2022/01/10 00:37:22;;;;;;;0.73;0.50;;;3.50;99.90;;;;;;5065685;28;20188;-84
2022/01/10 00:39:49;;;;;;;0.50;0.47;;;3.60;99.90;;;;;;5066437;28;20211;-84
2022/01/10 00:42:15;;;;;;;0.30;0.30;;;3.80;99.90;;;;;;5064890;28;20183;-84
2022/01/10 00:44:46;;;;;;;0.20;0.17;;;4.00;99.90;;;;;;5063665;28;20205;-84
2022/01/10 00:47:12;;;;;;;1.07;0.80;;;4.00;99.90;;;;;;5061220;28;20559;-84
2022/01/10 00:49:37;;;;;;;0.10;0.10;;;4.00;99.90;;;;;;5063665;28;20179;-84
2022/01/10 00:52:04;;;;;;;0.10;0.10;;;4.00;99.90;;;;;;5063384;28;20311;-83
2022/01/10 00:54:30;;;;;;;0.37;0.37;;;4.10;99.90;;;;;;5057581;28;20209;-83
2022/01/10 00:56:55;;;;;;;0.33;0.33;;;4.20;99.90;;;;;;5067050;28;20187;-83
2022/01/10 00:59:21;;;;;;;0.20;0.20;;;4.30;99.90;;;;;;5059243;28;20545;-83
2022/01/10 01:01:46;;;;;;;0.60;0.50;;;4.30;99.90;;;;;;5064726;28;20185;-84
2022/01/10 01:04:12;;;;;;;0.00;0.00;;;4.20;99.90;;;;;;5060992;28;20198;-85
2022/01/10 01:06:37;;;;;;;0.37;0.20;;;4.20;99.90;;;;;;5058824;28;20180;-84
2022/01/10 01:09:07;;;;;;;0.30;0.17;;;4.10;99.90;;;;;;5064252;28;20196;-84
2022/01/10 01:17:14;;;;;;;0.10;0.10;;;4.30;99.90;;;;;;5065122;28;20220;-83
2022/01/10 01:25:09;;;;;;;0.30;0.30;;;4.40;99.90;;;;;;5066543;28;20256;-84
2022/01/10 01:27:35;;;;;;;0.40;0.40;;;4.50;99.90;;;;;;5067061;28;20264;-84
2022/01/10 01:30:00;;;;;;;0.10;0.10;;;4.50;99.90;;;;;;5066114;28;20278;-85
2022/01/10 01:32:26;;;;;;;0.83;0.57;;;4.50;99.90;;;;;;5065431;28;20199;-85
2022/01/10 01:34:56;;;;;;;0.60;0.47;;;4.50;99.90;;;;;;5066367;28;20215;-84
2022/01/10 01:37:22;;;;;;;0.40;0.40;;;4.40;99.90;;;;;;5065524;28;20196;-85
2022/01/10 01:39:47;;;;;;;0.27;0.27;;;4.40;99.90;;;;;;5067027;28;20836;-84
2022/01/10 01:44:57;;;;;;;0.10;0.10;;;4.50;99.90;;;;;;5070958;28;20212;-85
2022/01/10 01:47:22;;;;;;;0.60;0.60;;;4.10;99.90;;;;;;5065553;28;20181;-84
2022/01/10 01:49:48;;;;;;;0.20;0.20;;;4.20;99.90;;;;;;5065672;28;20201;-84
2022/01/10 01:52:13;;;;;;;0.90;0.40;;;4.00;99.90;;;;;;5065055;28;20180;-84
2022/01/10 01:54:39;;;;;;;0.00;0.00;;;4.00;99.90;;;;;;5070170;28;20592;-84
2022/01/10 01:57:05;;;;;;;0.10;0.10;;;4.20;99.90;;;;;;5066535;28;20671;-85
2022/01/10 01:59:33;;;;;;;0.67;0.67;;;4.20;99.90;;;;;;5068124;28;20219;-85
2022/01/10 02:01:58;;;;;;;0.07;0.07;;;4.30;99.90;;;;;;5067262;28;20640;-85
2022/01/10 02:04:24;;;;;;;0.10;0.10;;;4.30;99.90;;;;;;5064927;28;20218;-85
2022/01/10 02:06:49;;;;;;;2.17;0.40;;;4.30;99.90;;;;;;5068202;28;20200;-85
2022/01/10 02:09:16;;;;;;;0.20;0.20;;;4.40;99.90;;;;;;5064349;28;20200;-84
2022/01/10 02:11:41;;;;;;;0.47;0.47;;;4.40;99.90;;;;;;5064549;28;20708;-85
2022/01/10 02:14:08;;;;;;;0.10;0.10;;;4.30;99.90;;;;;;5065814;28;20209;-85
2022/01/10 02:16:45;;;;;;;0.10;0.10;;;4.20;99.90;;;;;;5068765;28;20179;-84
2022/01/10 02:19:11;;;;;;;0.30;0.30;;;4.30;99.90;;;;;;5063716;28;20207;-84
2022/01/10 02:21:38;;;;;;;0.20;0.20;;;4.30;99.90;;;;;;5068240;28;20836;-85
2022/01/10 02:24:05;;;;;;;0.20;0.20;;;4.40;99.90;;;;;;5068173;28;20287;-84
2022/01/10 02:26:31;;;;;;;0.10;0.10;;;4.40;99.90;;;;;;5066237;28;20188;-84
2022/01/10 02:28:57;;;;;;;0.10;0.10;;;4.40;99.90;;;;;;5067899;28;20184;-84
2022/01/10 02:31:24;;;;;;;0.10;0.10;;;4.40;99.90;;;;;;5066348;28;20262;-84
2022/01/10 02:33:51;;;;;;;0.10;0.10;;;4.40;99.90;;;;;;5067994;28;20190;-85
2022/01/10 02:36:24;;;;;;;0.40;0.30;;;4.40;99.90;;;;;;5062480;28;20215;-84
2022/01/10 02:38:54;;;;;;;0.10;0.10;;;4.50;99.90;;;;;;5067081;28;20293;-85
2022/01/10 02:41:32;;;;;;;1.80;0.40;;;4.50;99.90;;;;;;5067783;28;20531;-83
2022/01/10 02:44:00;;;;;;;0.67;0.47;;;4.50;99.90;;;;;;5068111;28;20868;-84
2022/01/10 02:46:27;;;;;;;0.30;0.30;;;4.50;99.90;;;;;;5067658;28;20185;-85
2022/01/10 02:48:52;;;;;;;0.20;0.20;;;4.50;99.90;;;;;;5066054;28;20188;-85
2022/01/10 02:51:19;;;;;;;1.50;0.93;;;4.40;99.90;;;;;;5060901;28;20563;-84
2022/01/10 02:53:44;;;;;;;0.10;0.10;;;4.30;99.90;;;;;;5066061;28;20833;-85
2022/01/10 02:56:10;;;;;;;0.20;0.20;;;4.30;99.90;;;;;;5067894;28;20222;-84
2022/01/10 02:58:36;;;;;;;0.27;0.27;;;4.30;99.90;;;;;;5065706;28;20244;-85
2022/01/10 03:01:02;;;;;;;0.10;0.10;;;4.30;99.90;;;;;;5068459;28;20209;-85
2022/01/10 03:03:31;;;;;;;0.43;0.17;;;4.30;99.90;;;;;;5065805;28;20238;-85
2022/01/10 03:05:58;;;;;;;0.07;0.07;;;4.30;99.90;;;;;;5067405;28;20212;-84
2022/01/10 03:08:25;;;;;;;0.10;0.10;;;4.00;99.90;;;;;;5064948;28;20229;-85
2022/01/10 03:10:51;;;;;;;0.30;0.30;;;3.90;99.90;;;;;;5062749;28;20219;-84
2022/01/10 03:13:16;;;;;;;0.10;0.10;;;3.90;99.90;;;;;;5066520;28;20189;-85
2022/01/10 03:15:42;;;;;;;0.20;0.20;;;4.00;99.90;;;;;;5065600;28;20289;-85
2022/01/10 03:18:07;;;;;;;0.20;0.20;;;4.10;99.90;;;;;;5065548;28;20667;-85
2022/01/10 03:20:33;;;;;;;0.20;0.20;;;4.30;99.90;;;;;;5065548;28;20235;-85
2022/01/10 03:22:58;;;;;;;0.57;0.23;;;4.30;99.90;;;;;;5063057;28;20188;-84
2022/01/10 03:25:25;;;;;;;0.40;0.40;;;4.40;99.90;;;;;;5064534;28;20208;-85
2022/01/10 03:27:51;;;;;;;0.20;0.20;;;4.50;99.90;;;;;;5062325;28;20191;-85
2022/01/10 03:30:16;;;;;;;0.20;0.20;;;4.50;99.90;;;;;;5066070;28;20599;-84
2022/01/10 03:32:43;;;;;;;0.10;0.10;;;4.60;99.90;;;;;;5060829;28;21138;-84
2022/01/10 03:35:09;;;;;;;0.40;0.40;;;4.70;99.90;;;;;;5066205;28;20276;-85
2022/01/10 03:37:35;;;;;;;0.93;0.67;;;4.80;99.90;;;;;;5064672;28;20187;-85
2022/01/10 03:40:00;;;;;;;0.87;0.53;;;4.50;99.90;;;;;;5068266;28;20267;-85
2022/01/10 03:42:26;;;;;;;0.40;0.40;;;4.50;99.90;;;;;;5067351;28;20184;-83
2022/01/10 03:44:51;;;;;;;0.10;0.10;;;4.60;99.90;;;;;;5056972;28;20286;-85
2022/01/10 03:47:18;;;;;;;0.10;0.10;;;4.60;99.90;;;;;;5064416;28;20186;-84
2022/01/10 03:49:44;;;;;;;0.10;0.10;;;4.50;99.90;;;;;;5067569;28;20184;-85
2022/01/10 03:52:10;;;;;;;1.60;0.37;;;4.30;99.90;;;;;;5066022;28;22165;-84
2022/01/10 03:54:35;;;;;;;0.70;0.70;;;4.20;99.90;;;;;;5065640;28;20202;-84
2022/01/10 03:57:01;;;;;;;1.57;0.73;;;4.30;99.90;;;;;;5064619;28;20187;-84
2022/01/10 03:59:26;;;;;;;0.10;0.10;;;4.40;99.90;;;;;;5066519;28;20212;-84
2022/01/10 04:01:52;;;;;;;0.10;0.10;;;4.40;99.90;;;;;;5062679;28;20188;-85
2022/01/10 04:04:18;;;;;;;0.30;0.20;;;4.50;99.90;;;;;;5066501;28;20193;-85
2022/01/10 04:06:45;;;;;;;0.00;0.00;;;4.60;99.90;;;;;;5065260;28;20186;-84
2022/01/10 04:09:10;;;;;;;0.93;0.63;;;4.50;99.90;;;;;;5065024;28;21277;-85
2022/01/10 04:11:36;;;;;;;0.17;0.17;;;4.70;99.90;;;;;;5066377;28;20189;-84
2022/01/10 04:14:02;;;;;;;0.17;0.17;;;4.60;99.90;;;;;;5057938;28;20208;-85
2022/01/10 04:16:28;;;;;;;0.20;0.20;;;4.60;99.90;;;;;;5066901;28;20194;-84
2022/01/10 04:18:53;;;;;;;0.13;0.13;;;4.40;99.90;;;;;;5064846;28;20213;-84
2022/01/10 04:21:19;;;;;;;1.03;0.70;;;4.30;99.90;;;;;;5065115;28;20530;-84
2022/01/10 04:23:44;;;;;;;0.30;0.30;;;4.00;99.90;;;;;;5064293;28;20200;-84
2022/01/10 04:26:10;;;;;;;2.07;0.17;;;4.00;99.90;;;;;;5062073;28;20193;-85
2022/01/10 04:28:35;;;;;;;0.37;0.30;;;3.90;99.90;;;;;;5065965;28;20199;-85
2022/01/10 04:31:03;;;;;;;0.10;0.10;;;4.10;99.90;;;;;;5063989;28;20250;-85
2022/01/10 04:33:30;;;;;;;0.13;0.13;;;4.20;99.90;;;;;;5063063;28;20649;-84
2022/01/10 04:35:56;;;;;;;0.10;0.10;;;4.30;99.90;;;;;;5066365;28;20735;-84
2022/01/10 04:38:22;;;;;;;0.07;0.07;;;4.30;99.90;;;;;;5066438;28;20213;-84
2022/01/10 04:40:48;;;;;;;0.20;0.20;;;4.30;99.90;;;;;;5065753;28;20242;-85
2022/01/10 04:43:14;;;;;;;0.20;0.20;;;4.40;99.90;;;;;;5064023;28;20181;-84
2022/01/10 04:45:40;;;;;;;0.43;0.43;;;4.40;99.90;;;;;;5065674;28;20291;-85
2022/01/10 04:48:05;;;;;;;0.10;0.10;;;4.40;99.90;;;;;;5063841;28;20173;-84
2022/01/10 04:52:59;;;;;;;0.30;0.20;;;4.30;99.90;;;;;;5067475;28;20184;-84
2022/01/10 04:55:24;;;;;;;0.40;0.40;;;4.30;99.90;;;;;;5061720;28;20666;-84
2022/01/10 04:57:50;;;;;;;0.10;0.10;;;4.20;99.90;;;;;;5052424;28;20188;-84
2022/01/10 05:00:16;;;;;;;0.30;0.20;;;4.20;99.90;;;;;;5062553;28;20215;-85
2022/01/10 05:02:47;;;;;;;0.10;0.10;;;4.20;99.90;;;;;;5061762;28;20658;-85
2022/01/10 05:05:13;;;;;;;0.63;0.63;;;4.20;99.90;;;;;;5064411;28;20201;-85
2022/01/10 05:07:39;;;;;;;0.60;0.33;;;4.10;99.90;;;;;;5067463;28;20185;-85
2022/01/10 05:10:05;;;;;;;1.43;1.03;;;4.20;99.90;;;;;;5064956;28;20184;-84
2022/01/10 05:12:30;;;;;;;0.20;0.20;;;4.10;99.90;;;;;;5067061;28;20177;-85
2022/01/10 05:14:56;;;;;;;0.17;0.17;;;4.10;99.90;;;;;;5069026;28;20580;-84
2022/01/10 05:17:24;;;;;;;0.10;0.10;;;4.00;99.90;;;;;;5067586;28;20265;-84
2022/01/10 05:19:49;;;;;;;0.37;0.23;;;4.00;99.90;;;;;;5062102;28;20216;-84
2022/01/10 05:22:15;;;;;;;0.10;0.10;;;3.90;99.90;;;;;;5068689;28;20282;-84
2022/01/10 05:24:40;;;;;;;0.40;0.40;;;3.90;99.90;;;;;;5070044;28;20206;-84
2022/01/10 05:27:06;;;;;;;0.67;0.67;;;3.90;99.90;;;;;;5067828;28;20188;-84
2022/01/10 05:29:31;;;;;;;0.20;0.20;;;3.90;99.90;;;;;;5067423;28;20238;-84
2022/01/10 05:31:57;;;;;;;0.10;0.10;;;3.90;99.90;;;;;;5061225;28;20717;-84
2022/01/10 05:34:23;;;;;;;0.03;0.03;;;3.90;99.90;;;;;;5065351;28;20919;-84
2022/01/10 05:36:49;;;;;;;0.27;0.20;;;3.90;99.90;;;;;;5066949;28;20189;-84
2022/01/10 05:39:15;;;;;;;0.10;0.10;;;3.90;99.90;;;;;;5066829;28;20226;-84
2022/01/10 05:41:41;;;;;;;0.97;0.97;;;3.90;99.90;;;;;;5067341;28;20279;-84
2022/01/10 05:44:07;;;;;;;0.20;0.20;;;3.90;99.90;;;;;;5068437;28;20317;-85
2022/01/10 05:46:34;;;;;;;0.27;0.23;;;3.90;99.90;;;;;;5065886;28;20211;-83
2022/01/10 05:49:02;;;;;;;0.43;0.20;;;3.90;99.90;;;;;;5064399;28;20201;-85
2022/01/10 05:51:32;;;;;;;0.10;0.10;;;3.90;99.90;;;;;;5066372;28;20227;-84
2022/01/10 05:53:59;;;;;;;0.10;0.10;;;3.90;99.90;;;;;;5069847;28;20189;-84
2022/01/10 05:56:25;;;;;;;0.50;0.50;;;3.80;99.90;;;;;;5069661;28;20674;-84
2022/01/10 05:58:50;;;;;;;0.40;0.40;;;3.70;99.90;;;;;;5068840;28;20213;-84
2022/01/10 06:01:16;;;;;;;0.37;0.37;;;3.60;99.90;;;;;;5065810;28;20271;-84
2022/01/10 06:03:41;;;;;;;0.10;0.10;;;3.70;99.90;;;;;;5066911;28;20183;-84
2022/01/10 06:06:07;;;;;;;0.10;0.10;;;3.70;99.90;;;;;;5065929;28;20200;-84
2022/01/10 06:08:32;;;;;;;0.67;0.37;;;3.70;99.90;;;;;;5064638;28;20187;-83
2022/01/10 06:10:58;;;;;;;0.17;0.17;;;3.60;99.90;;;;;;5068607;28;20641;-84
2022/01/10 06:13:23;;;;;;;0.27;0.20;;;3.70;99.90;;;;;;5067403;28;20189;-82
2022/01/10 06:15:51;;;;;;;2.20;0.40;;;3.70;99.90;;;;;;5061741;28;20212;-82
2022/01/10 06:18:17;;;;;;;0.43;0.43;;;3.70;99.90;;;;;;5066267;28;20240;-82
2022/01/10 06:20:43;;;;;;;0.53;0.33;;;3.60;99.90;;;;;;5067511;28;20179;-82
2022/01/10 06:23:09;;;;;;;1.50;0.20;;;3.60;99.90;;;;;;5064362;28;20561;-82
2022/01/10 06:25:35;;;;;;;0.20;0.20;;;3.60;99.90;;;;;;5060966;28;20201;-83
2022/01/10 06:28:01;;;;;;;0.40;0.40;;;3.60;99.90;;;;;;5066115;28;20186;-82
2022/01/10 06:30:27;;;;;;;1.60;0.60;;;3.60;99.90;;;;;;5064921;28;20276;-82
2022/01/10 06:32:52;;;;;;;0.20;0.20;;;3.50;99.90;;;;;;5064375;28;20201;-84
2022/01/10 06:35:18;;;;;;;0.30;0.30;;;3.50;99.90;;;;;;5064382;28;20703;-85
2022/01/10 06:37:43;;;;;;;0.40;0.40;;;3.40;99.90;;;;;;5062282;28;20222;-85
2022/01/10 06:40:10;;;;;;;0.17;0.17;;;3.40;99.90;;;;;;5069719;28;20213;-85
2022/01/10 06:42:35;;;;;;;0.60;0.40;;;3.50;99.90;;;;;;5069645;28;20194;-85
2022/01/10 06:45:02;;;;;;;0.30;0.30;;;3.50;99.90;;;;;;5070044;28;20207;-85
2022/01/10 06:47:28;;;;;;;0.43;0.30;;;3.50;99.90;;;;;;5068774;28;20184;-84
2022/01/10 06:49:53;;;;;;;0.23;0.23;;;3.50;99.90;;;;;;5073136;28;20710;-82
2022/01/10 06:52:19;;;;;;;0.10;0.10;;;3.50;99.90;;;;;;5073871;28;20226;-82
2022/01/10 06:54:44;;;;;;;0.10;0.10;;;3.50;99.90;;;;;;5073138;28;20580;-85
2022/01/10 06:57:10;;;;;;;0.47;0.30;;;3.40;99.90;;;;;;5068835;28;20203;-84
2022/01/10 06:59:35;;;;;;;0.10;0.10;;;3.30;99.90;;;;;;5070220;28;20289;-85
2022/01/10 07:02:01;;;;;;;0.60;0.60;;;3.10;99.90;;;;;;5067745;28;20176;-84
2022/01/10 07:04:28;;;;;;;0.10;0.10;;;3.10;99.90;;;;;;5067465;28;22219;-84
2022/01/10 07:06:54;;;;;;;0.20;0.20;;;2.90;99.90;;;;;;5072461;28;20629;-85
2022/01/10 07:09:20;;;;;;;0.20;0.20;;;2.90;99.90;;;;;;5073333;28;20198;-84
2022/01/10 07:11:46;;;;;;;0.10;0.10;;;3.00;99.90;;;;;;5069127;28;20225;-84
2022/01/10 07:14:13;;;;;;;0.10;0.10;;;3.10;99.90;;;;;;5064888;28;20218;-83
2022/01/10 07:16:39;;;;;;;0.20;0.20;;;3.10;99.90;;;;;;5069978;28;20258;-82
2022/01/10 07:19:06;;;;;;;0.10;0.10;;;3.10;99.90;;;;;;5073133;28;21183;-82
2022/01/10 07:21:32;;;;;;;0.20;0.20;;;3.10;99.90;;;;;;5066269;28;20258;-83
2022/01/10 07:23:58;;;;;;;3.97;0.23;;;3.10;99.90;;;;;;5071387;28;20611;-82
2022/01/10 07:26:24;;;;;;;0.80;0.17;;;3.10;99.90;;;;;;5069386;28;20213;-82
2022/01/10 07:28:50;;;;;;;0.23;0.23;;;3.10;99.90;;;;;;5069812;28;20189;-82
2022/01/10 07:31:15;;;;;;;0.10;0.10;;;3.10;99.90;;;;;;5072290;28;21451;-82
2022/01/10 07:33:41;;;;;;;0.20;0.20;;;3.00;99.90;;;;;;5071279;28;20201;-82
2022/01/10 07:36:07;;;;;;;0.30;0.27;;;3.00;99.90;;;;;;5066488;28;20430;-82
2022/01/10 07:38:36;;;;;;;0.20;0.20;;;3.00;99.90;;;;;;5068762;28;20220;-82
2022/01/10 07:41:06;;;;;;;0.73;0.23;;;3.00;99.90;;;;;;5071152;28;20192;-83
2022/01/10 07:43:33;;;;;;;0.20;0.20;;;3.00;99.90;;;;;;5067640;28;20183;-82
2022/01/10 07:45:59;;;;;;;0.10;0.10;;;3.00;99.90;;;;;;5069511;28;20215;-83
2022/01/10 07:48:27;;;;;;;0.23;0.20;;;3.00;99.90;;;;;;5071328;28;20191;-81
2022/01/10 07:50:53;;;;;;;0.40;0.40;;;3.10;99.90;;;;;;5067162;28;20271;-82
2022/01/10 07:53:18;;;;;;;0.20;0.20;;;3.00;99.90;;;;;;5068072;28;20226;-82
2022/01/10 07:55:44;;;;;;;0.20;0.20;;;2.70;99.90;;;;;;5067571;28;20207;-82
2022/01/10 07:58:10;;;;;;;0.20;0.20;;;2.60;99.90;;;;;;5069451;28;20251;-81
2022/01/10 08:00:36;;;;;;;0.20;0.20;;;2.60;99.90;;;;;;5068052;28;20196;-82
2022/01/10 08:03:02;;;;;;;0.10;0.10;;;2.70;99.90;;;;;;5067040;28;20184;-83
2022/01/10 08:05:27;;;;;;;0.43;0.43;;;2.80;99.90;;;;;;5067623;28;20296;-82
2022/01/10 08:07:53;;;;;;;0.10;0.10;;;2.90;99.90;;;;;;5067432;28;20185;-82
2022/01/10 08:10:18;;;;;;;0.10;0.10;;;2.90;99.90;;;;;;5068144;28;20187;-82
2022/01/10 08:12:44;;;;;;;2.33;0.43;;;3.00;99.90;;;;;;5066905;28;20188;-82
2022/01/10 08:15:10;;;;;;;0.60;0.60;;;2.90;99.90;;;;;;5068718;28;20709;-82
2022/01/10 08:17:36;;;;;;;0.30;0.20;;;3.10;99.90;;;;;;5067227;28;20183;-82
2022/01/10 08:20:03;;;;;;;0.23;0.23;;;3.30;99.90;;;;;;5064982;28;20206;-81
2022/01/10 08:22:28;;;;;;;0.10;0.10;;;3.40;99.90;;;;;;5062370;28;20269;-81
2022/01/10 08:24:54;;;;;;;0.53;0.53;;;3.40;99.90;;;;;;5063597;28;20209;-81
2022/01/10 08:27:19;;;;;;;0.30;0.30;;;3.50;99.90;;;;;;5062472;28;20282;-83
2022/01/10 08:29:45;;;;;;;1.70;1.10;;;3.80;99.90;;;;;;5067309;28;20259;-82
2022/01/10 08:32:11;;;;;;;0.40;0.40;;;3.60;99.90;;;;;;5066340;28;20234;-82
2022/01/10 08:34:37;;;;;;;0.50;0.50;;;3.40;99.90;;;;;;5065584;28;20233;-82
2022/01/10 08:37:02;;;;;;;0.30;0.30;;;3.20;99.90;;;;;;5063623;28;20190;-82
2022/01/10 08:39:28;;;;;;;0.20;0.20;;;3.20;99.90;;;;;;5064387;28;20614;-82
2022/01/10 08:41:53;;;;;;;0.40;0.30;;;3.40;99.90;;;;;;5062473;28;20193;-82
2022/01/10 08:44:19;;;;;;;0.37;0.33;;;3.80;99.90;;;;;;5060378;28;20250;-83
2022/01/10 08:46:45;;;;;;;0.47;0.47;;;3.80;99.90;;;;;;5068091;28;20179;-82
2022/01/10 08:49:12;;;;;;;1.03;0.93;;;3.90;99.90;;;;;;5065396;28;20232;-83
2022/01/10 08:51:41;;;;;;;1.17;0.43;;;3.80;99.90;;;;;;5064563;28;20192;-81
2022/01/10 08:54:08;;;;;;;0.37;0.37;;;3.60;99.90;;;;;;5068167;28;20198;-83
2022/01/10 08:56:34;;;;;;;0.37;0.37;;;3.60;99.90;;;;;;5065422;28;20179;-82
2022/01/10 08:59:00;;;;;;;1.63;1.30;;;3.70;99.90;;;;;;5028232;28;1020243;-83
2022/01/10 09:01:26;;;;;;;0.37;0.37;;;3.70;99.90;;;;;;5068970;28;20188;-82
2022/01/10 09:03:52;;;;;;;0.50;0.50;;;3.90;99.90;;;;;;5066991;28;20537;-82
2022/01/10 09:06:18;;;;;;;1.00;0.33;;;4.30;99.90;;;;;;5066192;28;20208;-82
2022/01/10 09:08:46;;;;;;;0.30;0.30;;;4.50;99.90;;;;;;5068833;28;20231;-82
2022/01/10 09:11:12;;;;;;;0.43;0.43;;;4.60;99.90;;;;;;5066562;28;20187;-82
2022/01/10 09:13:37;;;;;;;0.73;0.73;;;4.90;99.90;;;;;;5066837;28;20184;-82
2022/01/10 09:16:03;;;;;;;0.10;0.10;;;5.10;99.90;;;;;;5066886;28;20276;-82
2022/01/10 09:18:29;;;;;;;0.30;0.30;;;5.30;99.90;;;;;;5067393;28;20217;-82
2022/01/10 09:20:55;;;;;;;0.67;0.30;;;5.30;99.90;;;;;;5066820;28;20199;-83
2022/01/10 09:23:22;;;;;;;0.43;0.43;;;5.40;99.90;;;;;;5063559;28;20222;-82
2022/01/10 09:25:49;;;;;;;0.67;0.50;;;5.50;99.90;;;;;;5065188;28;20691;-82
2022/01/10 09:28:16;;;;;;;0.33;0.33;;;5.70;99.90;;;;;;5066748;28;20204;-82
2022/01/10 09:30:41;;;;;;;0.43;0.37;;;5.90;99.90;;;;;;5064448;28;20817;-82
2022/01/10 09:33:07;;;;;;;0.40;0.40;;;6.10;99.90;;;;;;5063548;28;20187;-82
2022/01/10 09:35:33;;;;;;;0.20;0.20;;;6.20;99.90;;;;;;5065864;28;20261;-82
2022/01/10 09:37:58;;;;;;;0.77;0.40;;;6.30;99.90;;;;;;5066954;28;20550;-82
2022/01/10 09:40:24;;;;;;;0.17;0.17;;;6.30;99.90;;;;;;5068084;28;20279;-82
2022/01/10 09:42:50;;;;;;;0.20;0.20;;;6.50;99.90;;;;;;5067486;28;20445;-82
2022/01/10 09:45:16;;;;;;;0.17;0.17;;;6.70;99.90;;;;;;5064290;28;20262;-83
2022/01/10 09:47:41;;;;;;;1.07;0.50;;;6.80;99.90;;;;;;5067635;28;20212;-82
2022/01/10 09:50:09;;;;;;;0.60;0.60;;;6.90;99.90;;;;;;5065748;28;20259;-82
2022/01/10 09:52:37;;;;;;;0.20;0.20;;;7.00;99.90;;;;;;5066408;28;21033;-83
2022/01/10 09:55:03;;;;;;;0.50;0.50;;;7.10;99.90;;;;;;5061278;28;20667;-82
2022/01/10 09:57:28;;;;;;;2.00;0.63;;;7.10;99.90;;;;;;5062798;28;20279;-82
2022/01/10 09:59:54;;;;;;;0.43;0.43;;;7.10;99.90;;;;;;5066748;28;20280;-83
2022/01/10 10:02:20;;;;;;;0.83;0.53;;;7.20;99.90;;;;;;5067782;28;20658;-82
2022/01/10 10:04:46;;;;;;;0.37;0.37;;;7.30;99.90;;;;;;5068695;28;20290;-82
2022/01/10 10:07:13;;;;;;;0.67;0.67;;;7.20;99.90;;;;;;5067412;28;20209;-82
2022/01/10 10:09:39;;;;;;;0.77;0.77;;;7.20;99.90;;;;;;5067730;28;20250;-82
2022/01/10 10:12:05;;;;;;;0.37;0.37;;;7.20;99.90;;;;;;5063025;28;20214;-82
2022/01/10 10:14:31;;;;;;;0.20;0.20;;;7.00;99.90;;;;;;5065384;28;20205;-82
2022/01/10 10:17:06;;;;;;;0.33;0.33;;;7.10;99.90;;;;;;5068779;28;21153;-82
2022/01/10 10:19:32;;;;;;;1.93;1.63;;;7.00;99.90;;;;;;5065504;28;20204;-83
2022/01/10 10:21:59;;;;;;;0.40;0.40;;;7.10;99.90;;;;;;5068296;28;20197;-82
2022/01/10 10:24:25;;;;;;;0.53;0.53;;;7.30;99.90;;;;;;5064849;28;20205;-82
2022/01/10 10:26:52;;;;;;;3.70;0.73;;;7.40;99.90;;;;;;5063423;28;20191;-82
2022/01/10 10:29:19;;;;;;;0.40;0.40;;;7.50;99.90;;;;;;5061966;28;20587;-82
2022/01/10 10:31:48;;;;;;;0.20;0.20;;;7.70;99.90;;;;;;5066309;28;20221;-82
2022/01/10 10:34:19;;;;;;;0.67;0.67;;;7.70;99.90;;;;;;5066545;28;20231;-82
2022/01/10 10:36:46;;;;;;;1.00;0.80;;;7.80;99.90;;;;;;5064965;28;20276;-82
2022/01/10 10:39:13;;;;;;;1.33;0.60;;;7.80;99.90;;;;;;5066811;28;20300;-83
2022/01/10 10:41:39;;;;;;;0.70;0.70;;;7.90;99.90;;;;;;5063384;28;20188;-82
2022/01/10 10:44:05;;;;;;;1.87;1.77;;;7.90;99.90;;;;;;5065876;28;20181;-82
2022/01/10 10:46:31;;;;;;;0.40;0.40;;;8.00;99.90;;;;;;5068404;28;20234;-82
2022/01/10 10:49:03;;;;;;;0.60;0.60;;;8.00;99.90;;;;;;5062475;28;20193;-81
2022/01/10 10:51:31;;;;;;;0.43;0.30;;;8.00;99.90;;;;;;5066585;28;20182;-82
2022/01/10 10:54:10;;;;;;;0.20;0.20;;;8.10;99.90;;;;;;5060707;28;20235;-82
2022/01/10 10:56:39;;;;;;;0.10;0.10;;;8.20;99.90;;;;;;5066669;28;20181;-82
2022/01/10 10:59:07;;;;;;;0.50;0.37;;;8.20;99.90;;;;;;5065473;28;20305;-82
2022/01/10 11:01:39;;;;;;;0.47;0.40;;;8.30;99.90;;;;;;5064866;28;20617;-82
2022/01/10 11:04:06;;;;;;;0.60;0.60;;;8.20;99.90;;;;;;5070807;28;20173;-83
2022/01/10 11:06:33;;;;;;;0.83;0.80;;;8.20;99.90;;;;;;5067315;28;20676;-82
2022/01/10 11:09:06;;;;;;;1.60;1.03;;;8.10;99.90;;;;;;5067042;28;20295;-83
2022/01/10 11:11:32;;;;;;;1.00;0.97;;;7.70;99.90;;;;;;5061921;28;20252;-83
2022/01/10 11:14:00;;;;;;;0.70;0.70;;;7.60;99.90;;;;;;5065021;28;20251;-83
2022/01/10 11:16:26;;;;;;;0.50;0.50;;;7.40;99.90;;;;;;5064780;28;20200;-82
2022/01/10 11:18:52;;;;;;;0.37;0.37;;;7.50;99.90;;;;;;5065327;28;20218;-82
2022/01/10 11:21:17;;;;;;;0.50;0.50;;;7.50;99.90;;;;;;5069739;28;20189;-83
2022/01/10 11:23:46;;;;;;;0.70;0.70;;;7.60;99.90;;;;;;5068840;28;20550;-82
2022/01/10 11:26:14;;;;;;;0.10;0.10;;;7.80;99.90;;;;;;5063569;28;20239;-83
2022/01/10 11:28:56;;;;;;;0.73;0.73;;;7.80;99.90;;;;;;5064572;28;20188;-82
2022/01/10 11:31:27;;;;;;;0.60;0.60;;;8.00;99.90;;;;;;5060210;28;20246;-83
2022/01/10 11:33:55;;;;;;;0.20;0.20;;;7.70;99.90;;;;;;5065255;28;20193;-82
2022/01/10 11:36:24;;;;;;;0.20;0.20;;;7.60;99.90;;;;;;5065292;28;20213;-83
2022/01/10 11:39:08;;;;;;;1.13;1.13;;;7.80;99.90;;;;;;5061848;28;20704;-83
2022/01/10 11:41:33;;;;;;;0.67;0.23;;;8.00;99.90;;;;;;5064268;28;20326;-83
2022/01/10 11:44:08;;;;;;;1.53;0.60;;;8.00;99.90;;;;;;5061460;28;20260;-84
2022/01/10 11:46:37;;;;;;;0.60;0.27;;;8.10;99.90;;;;;;5066442;28;20199;-83
2022/01/10 11:49:08;;;;;;;0.53;0.53;;;7.90;99.90;;;;;;5069761;28;20189;-83
2022/01/10 11:51:43;;;;;;;0.30;0.30;;;7.80;99.90;;;;;;5064429;28;20688;-85
2022/01/10 11:54:14;;;;;;;1.23;1.23;;;7.70;99.90;;;;;;5062235;28;20229;-86
2022/01/10 11:56:51;;;;;;;0.20;0.20;;;7.70;99.90;;;;;;5061820;28;20188;-84
2022/01/10 11:59:21;;;;;;;1.73;1.00;;;7.90;99.90;;;;;;5064193;28;20450;-85
2022/01/10 12:02:12;;;;;;;0.40;0.40;;;7.90;99.90;;;;;;5062912;28;20192;-85
2022/01/10 12:04:40;;;;;;;1.53;0.50;;;7.60;99.90;;;;;;5048240;28;20246;-85
2022/01/10 12:07:08;;;;;;;0.37;0.37;;;7.80;99.90;;;;;;5067105;28;20747;-86
2022/01/10 12:09:35;;;;;;;0.40;0.40;;;7.90;99.90;;;;;;5069756;28;20189;-85
2022/01/10 12:12:02;;;;;;;0.63;0.40;;;7.80;99.90;;;;;;5066765;28;20192;-84
2022/01/10 12:14:29;;;;;;;2.17;0.70;;;8.00;99.90;;;;;;5068209;28;20209;-85
2022/01/10 12:16:56;;;;;;;2.83;0.33;;;8.00;99.90;;;;;;5065104;28;20191;-86
2022/01/10 12:19:22;;;;;;;0.50;0.50;;;8.10;99.90;;;;;;5064979;28;20689;-85
2022/01/10 12:21:48;;;;;;;0.47;0.47;;;8.10;99.90;;;;;;5066177;28;20191;-85
2022/01/10 12:24:14;;;;;;;0.80;0.80;;;8.20;99.90;;;;;;5066728;28;20292;-86
2022/01/10 12:26:41;;;;;;;1.83;0.63;;;8.40;99.90;;;;;;5069775;28;20375;-85
2022/01/10 12:29:08;;;;;;;0.37;0.37;;;8.70;99.90;;;;;;5092785;28;20667;-85
2022/01/10 12:31:36;;;;;;;0.40;0.40;;;8.00;99.90;;;;;;5071739;28;20303;-86
2022/01/10 12:34:03;;;;;;;0.10;0.10;;;7.80;99.90;;;;;;5068645;28;20194;-85
2022/01/10 12:36:31;;;;;;;0.43;0.43;;;8.00;99.90;;;;;;5067217;28;20201;-85
2022/01/10 12:39:11;;;;;;;0.30;0.30;;;7.80;99.90;;;;;;5064959;28;20233;-85
2022/01/10 12:41:38;;;;;;;0.37;0.37;;;7.70;99.90;;;;;;5067819;28;20185;-86
2022/01/10 12:44:04;;;;;;;0.20;0.20;;;7.70;99.90;;;;;;5065488;28;20192;-85
2022/01/10 12:46:32;;;;;;;0.30;0.30;;;7.40;99.90;;;;;;5068251;28;20182;-86
2022/01/10 12:49:02;;;;;;;1.80;0.80;;;7.00;99.90;;;;;;5065478;28;20208;-85
2022/01/10 12:51:36;;;;;;;0.20;0.20;;;7.00;99.90;;;;;;5065672;28;20181;-85
2022/01/10 12:54:05;;;;;;;3.93;0.93;;;7.00;99.90;;;;;;5066504;28;21017;-85
2022/01/10 12:56:30;;;;;;;1.10;0.83;;;7.00;99.90;;;;;;5068213;28;21976;-85
2022/01/10 12:58:56;;;;;;;0.43;0.43;;;7.10;99.90;;;;;;5062095;28;20250;-86
2022/01/10 13:01:23;;;;;;;0.20;0.20;;;7.10;99.90;;;;;;5063703;28;20558;-85
2022/01/10 13:03:54;;;;;;;0.40;0.20;;;7.10;99.90;;;;;;5066757;28;20226;-85
2022/01/10 13:06:21;;;;;;;0.40;0.40;;;7.30;99.90;;;;;;5066233;28;21180;-85
2022/01/10 13:08:47;;;;;;;0.53;0.50;;;7.30;99.90;;;;;;5066466;28;20280;-85
2022/01/10 13:11:18;;;;;;;0.27;0.27;;;7.30;99.90;;;;;;5064806;28;20623;-85